createdAt,value
2018-02-07T00:00:22.243Z,53.80
2018-02-07T00:02:49.799Z,53.90
2018-02-07T00:05:17.747Z,53.80
2018-02-07T00:07:45.325Z,53.80
2018-02-07T00:10:13.280Z,53.80
2018-02-07T00:12:42.427Z,54.00
2018-02-07T00:15:09.997Z,53.80
2018-02-07T00:17:37.959Z,53.70
2018-02-07T00:20:05.503Z,53.80
2018-02-07T00:22:33.458Z,53.80
2018-02-07T00:25:01.006Z,53.90
2018-02-07T00:27:30.121Z,53.90
2018-02-07T00:29:57.674Z,54.00
2018-02-07T00:32:25.638Z,54.20
2018-02-07T00:34:53.961Z,54.10
2018-02-07T00:37:22.324Z,54.10
2018-02-07T00:39:50.293Z,54.00
2018-02-07T00:42:18.727Z,54.30
2018-02-07T00:44:46.986Z,54.10
2018-02-07T00:47:14.705Z,54.30
2018-02-07T00:49:42.651Z,54.20
2018-02-07T00:52:11.076Z,54.00
2018-02-07T00:54:39.058Z,54.00
2018-02-07T00:57:06.619Z,53.80
2018-02-07T00:59:34.967Z,53.70
2018-02-07T01:02:03.326Z,53.60
2018-02-07T01:04:31.679Z,53.50
2018-02-07T01:07:00.042Z,53.70
2018-02-07T01:09:29.265Z,54.10
2018-02-07T01:11:57.704Z,54.10
2018-02-07T01:14:25.357Z,54.00
2018-02-07T01:16:53.426Z,54.00
2018-02-07T01:19:21.834Z,54.20
2018-02-07T01:21:50.384Z,54.10
2018-02-07T01:24:19.360Z,54.30
2018-02-07T01:26:47.095Z,54.30
2018-02-07T01:29:15.055Z,54.50
2018-02-07T01:31:44.275Z,54.90
2018-02-07T01:34:11.834Z,54.30
2018-02-07T01:36:40.170Z,54.30
2018-02-07T01:39:08.856Z,54.40
2018-02-07T01:41:36.802Z,54.20
2018-02-07T01:44:04.470Z,54.40
2018-02-07T01:46:32.924Z,54.90
2018-02-07T01:49:00.627Z,54.50
2018-02-07T01:51:29.055Z,54.60
2018-02-07T01:53:57.390Z,54.50
2018-02-07T01:56:25.771Z,54.80
2018-02-07T01:58:54.095Z,54.80
2018-02-07T02:01:22.423Z,54.70
2018-02-07T02:03:50.752Z,54.70
2018-02-07T02:06:19.671Z,54.50
2018-02-07T02:08:48.378Z,54.90
2018-02-07T02:11:15.926Z,54.30
2018-02-07T02:13:44.257Z,54.50
2018-02-07T02:16:12.447Z,54.50
2018-02-07T02:18:41.703Z,55.50
2018-02-07T02:21:10.062Z,54.90
2018-02-07T02:23:37.826Z,54.60
2018-02-07T02:26:06.879Z,55.50
2018-02-07T02:28:34.451Z,54.60
2018-02-07T02:31:02.831Z,54.80
2018-02-07T02:33:30.790Z,54.70
2018-02-07T02:36:10.131Z,54.90
2018-02-07T02:38:37.675Z,55.00
2018-02-07T02:41:06.070Z,57.30
2018-02-07T02:43:35.810Z,55.70
2018-02-07T02:46:04.181Z,55.30
2018-02-07T02:48:32.305Z,55.10
2018-02-07T02:51:00.389Z,55.10
2018-02-07T02:53:27.967Z,55.10
2018-02-07T02:55:56.837Z,55.60
2018-02-07T02:58:24.401Z,55.00
2018-02-07T03:00:52.870Z,55.00
2018-02-07T03:03:20.808Z,54.70
2018-02-07T03:05:48.382Z,54.70
2018-02-07T03:08:16.330Z,54.80
2018-02-07T03:10:44.664Z,55.40
2018-02-07T03:13:12.223Z,55.00
2018-02-07T03:15:40.926Z,55.40
2018-02-07T03:18:08.651Z,55.00
2018-02-07T03:20:36.978Z,55.10
2018-02-07T03:23:05.340Z,55.00
2018-02-07T03:25:34.438Z,55.70
2018-02-07T03:28:01.992Z,55.00
2018-02-07T03:30:30.373Z,55.00
2018-02-07T03:32:58.690Z,54.80
2018-02-07T03:35:27.029Z,54.90
2018-02-07T03:37:56.091Z,55.60
2018-02-07T03:40:23.718Z,55.10
2018-02-07T03:42:52.054Z,55.20
2018-02-07T03:45:20.430Z,55.10
2018-02-07T03:47:48.767Z,55.20
2018-02-07T03:50:17.102Z,55.10
2018-02-07T03:52:45.449Z,54.80
2018-02-07T03:55:14.238Z,55.00
2018-02-07T03:57:42.945Z,55.50
2018-02-07T04:00:10.901Z,55.00
2018-02-07T04:02:39.235Z,55.00
2018-02-07T04:05:07.194Z,55.00
2018-02-07T04:07:35.555Z,54.70
2018-02-07T04:10:03.870Z,54.60
2018-02-07T04:12:32.203Z,54.60
2018-02-07T04:15:00.572Z,54.50
2018-02-07T04:17:28.904Z,54.60
2018-02-07T04:19:57.287Z,54.60
2018-02-07T04:22:25.642Z,54.70
2018-02-07T04:24:53.973Z,54.60
2018-02-07T04:27:23.075Z,54.90
2018-02-07T04:29:51.014Z,54.50
2018-02-07T04:32:18.967Z,54.60
2018-02-07T04:34:47.340Z,55.40
2018-02-07T04:37:15.675Z,55.40
2018-02-07T04:39:43.231Z,55.00
2018-02-07T04:42:11.201Z,55.10
2018-02-07T04:44:39.533Z,54.90
2018-02-07T04:47:07.876Z,55.10
2018-02-07T04:49:35.449Z,55.30
2018-02-07T04:52:03.468Z,55.10
2018-02-07T04:54:31.778Z,55.20
2018-02-07T04:56:59.750Z,55.20
2018-02-07T04:59:27.347Z,55.20
2018-02-07T05:01:55.682Z,55.10
2018-02-07T05:04:23.635Z,55.30
2018-02-07T05:06:51.943Z,55.10
2018-02-07T05:09:19.521Z,55.20
2018-02-07T05:11:47.463Z,55.40
2018-02-07T05:14:15.819Z,55.60
2018-02-07T05:16:44.159Z,55.70
2018-02-07T05:19:12.498Z,55.60
2018-02-07T05:21:40.511Z,55.60
2018-02-07T05:24:08.842Z,56.50
2018-02-07T05:26:36.398Z,56.20
2018-02-07T05:29:04.743Z,56.00
2018-02-07T05:31:33.064Z,55.50
2018-02-07T05:34:01.411Z,55.50
2018-02-07T05:36:29.718Z,55.40
2018-02-07T05:38:58.059Z,55.40
2018-02-07T05:41:26.471Z,55.50
2018-02-07T05:43:54.440Z,55.10
2018-02-07T05:46:22.391Z,55.10
2018-02-07T05:48:49.962Z,55.20
2018-02-07T05:51:18.279Z,55.40
2018-02-07T05:53:46.614Z,56.00
2018-02-07T05:56:14.158Z,55.10
2018-02-07T05:58:42.122Z,55.20
2018-02-07T06:01:10.444Z,55.30
2018-02-07T06:03:38.850Z,55.50
2018-02-07T06:06:07.163Z,55.30
2018-02-07T06:08:35.127Z,55.50
2018-02-07T06:11:02.680Z,55.50
2018-02-07T06:13:31.019Z,55.70
2018-02-07T06:15:58.960Z,55.60
2018-02-07T06:18:27.303Z,56.30
2018-02-07T06:20:55.620Z,56.20
2018-02-07T06:23:23.163Z,55.60
2018-02-07T06:25:51.127Z,55.90
2018-02-07T06:28:18.671Z,56.20
2018-02-07T06:30:46.630Z,56.00
2018-02-07T06:33:15.684Z,56.60
2018-02-07T06:35:43.648Z,56.10
2018-02-07T06:38:12.326Z,56.70
2018-02-07T06:40:39.897Z,56.50
2018-02-07T06:43:07.435Z,56.60
2018-02-07T06:45:35.407Z,56.70
2018-02-07T06:48:03.722Z,56.80
2018-02-07T06:50:32.068Z,56.70
2018-02-07T06:53:00.375Z,56.60
2018-02-07T06:55:28.808Z,56.40
2018-02-07T06:57:57.122Z,56.00
2018-02-07T07:00:25.456Z,56.00
2018-02-07T07:02:53.806Z,56.20
2018-02-07T07:05:22.882Z,56.50
2018-02-07T07:07:50.431Z,56.20
2018-02-07T07:10:18.003Z,56.10
2018-02-07T07:12:45.967Z,56.30
2018-02-07T07:15:14.310Z,56.30
2018-02-07T07:17:42.655Z,56.20
2018-02-07T07:20:10.626Z,56.40
2018-02-07T07:22:38.944Z,57.00
2018-02-07T07:25:06.505Z,56.60
2018-02-07T07:27:34.842Z,56.30
2018-02-07T07:30:03.241Z,56.20
2018-02-07T07:32:31.174Z,56.30
2018-02-07T07:34:58.714Z,56.20
2018-02-07T07:37:26.761Z,55.90
2018-02-07T07:39:55.075Z,56.00
2018-02-07T07:42:23.030Z,56.20
2018-02-07T07:44:50.575Z,53.40
2018-02-07T07:47:18.911Z,56.30
2018-02-07T07:49:47.227Z,56.50
2018-02-07T07:52:15.430Z,56.50
2018-02-07T07:54:43.744Z,56.40
2018-02-07T07:57:12.143Z,56.10
2018-02-07T07:59:40.450Z,56.00
2018-02-07T08:02:08.816Z,55.90
2018-02-07T08:04:37.135Z,55.80
2018-02-07T08:07:04.711Z,55.90
2018-02-07T08:09:32.679Z,55.50
2018-02-07T08:12:01.014Z,55.70
2018-02-07T08:14:29.326Z,55.40
2018-02-07T08:16:57.661Z,55.20
2018-02-07T08:19:25.607Z,55.00
2018-02-07T08:21:53.175Z,55.10
2018-02-07T08:24:21.281Z,54.50
2018-02-07T08:26:49.775Z,54.20
2018-02-07T08:29:17.737Z,53.80
2018-02-07T08:31:45.307Z,53.80
2018-02-07T08:34:13.670Z,53.50
2018-02-07T08:36:42.276Z,53.10
2018-02-07T08:39:10.231Z,53.00
2018-02-07T08:41:39.323Z,53.30
2018-02-07T08:44:07.640Z,52.20
2018-02-07T08:46:35.614Z,51.80
2018-02-07T08:49:03.582Z,52.00
2018-02-07T08:51:31.918Z,52.50
2018-02-07T08:54:00.324Z,52.40
2018-02-07T08:56:28.286Z,51.90
2018-02-07T08:58:56.248Z,52.30
2018-02-07T09:01:24.581Z,52.00
2018-02-07T09:03:52.145Z,52.10
2018-02-07T09:06:20.463Z,51.90
2018-02-07T09:08:48.031Z,51.70
2018-02-07T09:11:15.991Z,51.40
2018-02-07T09:13:45.070Z,51.90
2018-02-07T09:16:12.619Z,50.90
2018-02-07T09:18:40.956Z,50.90
2018-02-07T09:21:09.337Z,50.80
2018-02-07T09:23:37.671Z,50.70
2018-02-07T09:26:05.257Z,50.70
2018-02-07T09:28:33.235Z,50.40
2018-02-07T09:31:01.562Z,50.00
2018-02-07T09:33:29.891Z,49.90
2018-02-07T09:35:57.831Z,49.60
2018-02-07T09:38:25.830Z,49.60
2018-02-07T09:40:54.148Z,49.40
2018-02-07T09:43:22.111Z,49.80
2018-02-07T09:45:56.274Z,50.10
2018-02-07T09:48:24.418Z,49.90
2018-02-07T09:50:52.469Z,48.90
2018-02-07T09:53:20.815Z,48.80
2018-02-07T09:55:49.130Z,48.40
2018-02-07T09:58:17.477Z,48.00
2018-02-07T10:00:45.859Z,48.00
2018-02-07T10:03:13.423Z,47.90
2018-02-07T10:05:40.975Z,48.00
2018-02-07T10:08:08.910Z,48.20
2018-02-07T10:10:37.243Z,47.00
2018-02-07T10:13:04.796Z,47.60
2018-02-07T10:15:32.364Z,47.00
2018-02-07T10:17:59.921Z,47.30
2018-02-07T10:20:28.263Z,46.40
2018-02-07T10:22:57.629Z,47.30
2018-02-07T10:25:27.038Z,47.00
2018-02-07T10:27:55.038Z,47.50
2018-02-07T10:30:23.368Z,47.20
2018-02-07T10:32:50.910Z,47.50
2018-02-07T10:35:18.470Z,47.70
2018-02-07T10:37:46.108Z,45.20
2018-02-07T10:40:13.739Z,47.50
2018-02-07T10:42:41.272Z,47.50
2018-02-07T10:45:09.864Z,47.10
2018-02-07T10:47:37.398Z,47.00
2018-02-07T10:50:04.999Z,47.20
2018-02-07T10:52:33.026Z,47.20
2018-02-07T10:55:01.354Z,47.10
2018-02-07T10:57:29.655Z,46.90
2018-02-07T10:59:57.995Z,46.70
2018-02-07T11:02:25.940Z,46.80
2018-02-07T11:04:53.539Z,47.20
2018-02-07T11:07:21.475Z,47.40
2018-02-07T11:09:49.039Z,47.20
2018-02-07T11:12:16.971Z,47.40
2018-02-07T11:14:45.055Z,47.90
2018-02-07T11:17:12.607Z,47.70
2018-02-07T11:19:40.568Z,47.40
2018-02-07T11:22:08.880Z,47.00
2018-02-07T11:24:37.222Z,46.90
2018-02-07T11:27:05.681Z,46.70
2018-02-07T11:29:33.611Z,46.80
2018-02-07T11:32:01.178Z,46.90
2018-02-07T11:34:29.216Z,47.20
2018-02-07T11:36:57.558Z,46.90
2018-02-07T11:39:25.872Z,46.80
2018-02-07T11:41:53.440Z,47.00
2018-02-07T11:44:20.979Z,46.30
2018-02-07T11:46:48.654Z,46.70
2018-02-07T11:49:16.799Z,47.40
2018-02-07T11:51:45.509Z,48.40
2018-02-07T11:54:13.076Z,47.80
2018-02-07T11:56:40.634Z,48.20
2018-02-07T11:59:08.175Z,46.50
2018-02-07T12:01:35.743Z,47.00
2018-02-07T12:04:03.308Z,44.60
2018-02-07T12:06:30.870Z,45.00
2018-02-07T12:08:58.414Z,43.30
2018-02-07T12:11:26.792Z,44.50
2018-02-07T12:13:54.342Z,44.50
2018-02-07T12:16:21.948Z,44.30
2018-02-07T12:18:49.878Z,44.90
2018-02-07T12:21:18.202Z,46.20
2018-02-07T12:23:46.522Z,46.60
2018-02-07T12:26:14.868Z,46.60
2018-02-07T12:28:42.798Z,46.10
2018-02-07T12:31:10.362Z,45.50
2018-02-07T12:33:37.909Z,45.60
2018-02-07T12:36:05.471Z,44.90
2018-02-07T12:38:33.070Z,45.40
2018-02-07T12:41:00.607Z,44.30
2018-02-07T12:43:28.937Z,45.00
2018-02-07T12:45:56.475Z,44.30
2018-02-07T12:48:24.033Z,43.80
2018-02-07T12:50:51.578Z,42.20
2018-02-07T12:53:19.538Z,42.60
2018-02-07T12:55:47.078Z,43.10
2018-02-07T12:58:15.040Z,42.10
2018-02-07T13:00:42.583Z,43.10
2018-02-07T13:03:10.147Z,43.90
2018-02-07T13:05:39.421Z,44.30
2018-02-07T13:08:07.743Z,44.00
2018-02-07T13:10:36.056Z,44.20
2018-02-07T13:13:04.017Z,43.80
2018-02-07T13:15:31.956Z,44.00
2018-02-07T13:18:00.282Z,45.10
2018-02-07T13:20:27.842Z,44.70
2018-02-07T13:22:55.838Z,44.70
2018-02-07T13:25:24.147Z,45.00
2018-02-07T13:27:52.476Z,44.90
2018-02-07T13:30:21.163Z,46.00
2018-02-07T13:32:49.114Z,45.60
2018-02-07T13:35:17.048Z,46.20
2018-02-07T13:37:45.377Z,46.90
2018-02-07T13:40:12.935Z,46.50
2018-02-07T13:42:41.262Z,46.80
2018-02-07T13:45:09.586Z,46.70
2018-02-07T13:47:37.146Z,46.70
2018-02-07T13:50:04.724Z,46.50
2018-02-07T13:52:32.292Z,46.50
2018-02-07T13:55:00.243Z,46.30
2018-02-07T13:57:28.207Z,46.90
2018-02-07T13:59:56.151Z,47.40
2018-02-07T14:02:24.111Z,47.50
2018-02-07T14:04:52.427Z,48.30
2018-02-07T14:07:20.810Z,48.10
2018-02-07T14:09:49.134Z,47.50
2018-02-07T14:12:17.448Z,47.50
2018-02-07T14:14:45.423Z,47.60
2018-02-07T14:17:13.022Z,47.50
2018-02-07T14:19:40.970Z,47.60
2018-02-07T14:22:08.506Z,47.50
2018-02-07T14:24:36.464Z,46.60
2018-02-07T14:27:04.771Z,46.40
2018-02-07T14:29:33.102Z,46.70
2018-02-07T14:32:00.647Z,46.30
2018-02-07T14:34:28.604Z,46.30
2018-02-07T14:36:56.919Z,46.30
2018-02-07T14:39:25.258Z,46.50
2018-02-07T14:41:53.570Z,46.70
2018-02-07T14:44:21.915Z,46.50
2018-02-07T14:46:50.223Z,46.30
2018-02-07T14:49:18.543Z,46.80
2018-02-07T14:51:46.859Z,47.00
2018-02-07T14:54:15.182Z,47.00
2018-02-07T14:56:42.747Z,46.60
2018-02-07T14:59:10.722Z,46.20
2018-02-07T15:01:39.319Z,46.30
2018-02-07T15:04:07.350Z,45.90
2018-02-07T15:06:35.710Z,45.90
2018-02-07T15:09:03.658Z,45.90
2018-02-07T15:11:31.990Z,46.40
2018-02-07T15:13:59.551Z,46.00
2018-02-07T15:16:27.894Z,46.20
2018-02-07T15:18:56.215Z,45.80
2018-02-07T15:21:24.170Z,45.80
2018-02-07T15:23:51.717Z,45.80
2018-02-07T15:26:19.681Z,46.90
2018-02-07T15:28:47.996Z,45.80
2018-02-07T15:31:16.339Z,45.60
2018-02-07T15:33:43.879Z,45.80
2018-02-07T15:36:11.838Z,45.60
2018-02-07T15:38:40.150Z,45.80
2018-02-07T15:41:08.849Z,46.50
2018-02-07T15:43:37.155Z,46.00
2018-02-07T15:46:05.104Z,46.30
2018-02-07T15:48:32.644Z,46.30
2018-02-07T15:51:01.351Z,47.00
2018-02-07T15:53:28.898Z,46.60
2018-02-07T15:55:57.230Z,47.00
2018-02-07T15:58:25.551Z,46.60
2018-02-07T16:00:53.884Z,46.70
2018-02-07T16:03:22.200Z,46.50
2018-02-07T16:05:50.774Z,46.50
2018-02-07T16:08:19.447Z,47.50
2018-02-07T16:10:47.474Z,46.60
2018-02-07T16:13:15.787Z,46.70
2018-02-07T16:15:44.124Z,46.70
2018-02-07T16:18:12.074Z,47.20
2018-02-07T16:20:39.652Z,47.00
2018-02-07T16:23:07.222Z,46.90
2018-02-07T16:25:36.314Z,47.50
2018-02-07T16:28:03.898Z,47.50
2018-02-07T16:30:32.251Z,47.70
2018-02-07T16:33:00.568Z,47.50
2018-02-07T16:35:28.503Z,47.70
2018-02-07T16:37:56.844Z,48.20
2018-02-07T16:40:24.397Z,47.90
2018-02-07T16:42:52.359Z,47.90
2018-02-07T16:45:19.902Z,47.90
2018-02-07T16:47:47.858Z,47.80
2018-02-07T16:50:16.169Z,47.50
2018-02-07T16:52:44.160Z,47.80
2018-02-07T16:55:11.724Z,47.80
2018-02-07T16:57:40.055Z,47.90
2018-02-07T17:00:08.374Z,48.10
2018-02-07T17:02:37.239Z,48.00
2018-02-07T17:05:04.816Z,48.00
2018-02-07T17:07:32.396Z,47.90
2018-02-07T17:10:00.335Z,47.60
2018-02-07T17:12:28.670Z,47.60
2018-02-07T17:14:56.619Z,47.60
2018-02-07T17:17:24.969Z,48.70
2018-02-07T17:19:52.516Z,47.20
2018-02-07T17:22:20.860Z,47.40
2018-02-07T17:24:49.180Z,48.00
2018-02-07T17:27:17.533Z,47.90
2018-02-07T17:29:45.487Z,47.80
2018-02-07T17:32:13.051Z,47.60
2018-02-07T17:34:40.990Z,47.50
2018-02-07T17:37:08.546Z,47.30
2018-02-07T17:39:36.859Z,47.30
2018-02-07T17:42:05.048Z,47.20
2018-02-07T17:44:33.455Z,47.10
2018-02-07T17:47:01.795Z,47.10
2018-02-07T17:49:29.734Z,47.30
2018-02-07T17:51:57.283Z,47.30
2018-02-07T17:54:25.245Z,47.30
2018-02-07T17:56:53.571Z,47.20
2018-02-07T17:59:21.907Z,47.30
2018-02-07T18:01:50.228Z,47.40
2018-02-07T18:04:18.551Z,47.50
2018-02-07T18:06:46.868Z,47.50
2018-02-07T18:09:14.433Z,47.00
2018-02-07T18:11:42.484Z,47.10
2018-02-07T18:14:10.814Z,47.00
2018-02-07T18:16:39.858Z,47.50
2018-02-07T18:19:07.429Z,46.90
2018-02-07T18:21:35.738Z,46.60
2018-02-07T18:24:04.089Z,46.80
2018-02-07T18:26:32.464Z,46.30
2018-02-07T18:29:00.791Z,46.40
2018-02-07T18:31:29.102Z,46.50
2018-02-07T18:33:56.662Z,45.90
2018-02-07T18:36:25.364Z,46.50
2018-02-07T18:38:52.938Z,46.10
2018-02-07T18:41:21.286Z,45.90
2018-02-07T18:43:49.627Z,45.90
2018-02-07T18:46:18.046Z,45.70
2018-02-07T18:48:46.398Z,45.80
2018-02-07T18:51:14.731Z,45.90
2018-02-07T18:53:43.072Z,45.80
2018-02-07T18:56:11.392Z,46.10
2018-02-07T18:58:40.459Z,46.10
2018-02-07T19:01:08.021Z,45.80
2018-02-07T19:03:36.359Z,45.50
2018-02-07T19:06:04.670Z,45.80
2018-02-07T19:08:32.238Z,45.80
2018-02-07T19:11:00.191Z,45.70
2018-02-07T19:13:28.503Z,45.50
2018-02-07T19:15:56.837Z,45.70
2018-02-07T19:18:25.155Z,45.50
2018-02-07T19:20:54.322Z,46.30
2018-02-07T19:23:22.347Z,45.70
2018-02-07T19:25:50.321Z,45.50
2018-02-07T19:28:18.632Z,45.80
2018-02-07T19:30:46.963Z,45.70
2018-02-07T19:33:15.273Z,45.90
2018-02-07T19:35:42.838Z,45.70
2018-02-07T19:38:10.893Z,45.80
2018-02-07T19:40:39.216Z,45.50
2018-02-07T19:43:07.527Z,45.90
2018-02-07T19:45:35.496Z,46.00
2018-02-07T19:48:03.958Z,46.90
2018-02-07T19:50:31.531Z,45.60
2018-02-07T19:52:59.490Z,46.00
2018-02-07T19:55:28.653Z,46.10
2018-02-07T19:57:57.346Z,46.30
2018-02-07T20:00:24.907Z,45.80
2018-02-07T20:02:53.138Z,45.80
2018-02-07T20:05:21.482Z,45.80
2018-02-07T20:07:49.829Z,45.90
2018-02-07T20:10:18.177Z,46.00
2018-02-07T20:12:46.487Z,46.10
2018-02-07T20:15:15.186Z,46.50
2018-02-07T20:17:43.133Z,46.40
2018-02-07T20:20:11.470Z,46.40
2018-02-07T20:22:39.421Z,46.20
2018-02-07T20:25:06.998Z,46.20
2018-02-07T20:27:36.060Z,46.50
2018-02-07T20:30:03.604Z,45.90
2018-02-07T20:32:31.991Z,46.00
2018-02-07T20:35:00.314Z,45.90
2018-02-07T20:37:28.648Z,46.10
2018-02-07T20:39:56.962Z,45.90
2018-02-07T20:42:24.935Z,45.80
2018-02-07T20:44:53.275Z,46.50
2018-02-07T20:47:20.891Z,46.40
2018-02-07T20:49:48.841Z,46.10
2018-02-07T20:52:17.180Z,46.30
2018-02-07T20:54:44.740Z,46.20
2018-02-07T20:57:19.515Z,46.20
2018-02-07T20:59:47.506Z,46.10
2018-02-07T21:02:15.462Z,46.10
2018-02-07T21:04:43.020Z,46.30
2018-02-07T21:07:10.983Z,46.60
2018-02-07T21:09:38.975Z,46.50
2018-02-07T21:12:06.539Z,46.50
2018-02-07T21:14:34.501Z,46.50
2018-02-07T21:17:02.169Z,46.30
2018-02-07T21:19:29.716Z,46.50
2018-02-07T21:21:57.386Z,46.30
2018-02-07T21:24:25.335Z,46.50
2018-02-07T21:26:53.681Z,46.40
2018-02-07T21:29:21.984Z,46.50
2018-02-07T21:31:50.311Z,46.10
2018-02-07T21:34:18.631Z,46.70
2018-02-07T21:36:46.587Z,46.80
2018-02-07T21:39:14.894Z,47.70
2018-02-07T21:41:42.459Z,47.10
2018-02-07T21:44:10.406Z,47.10
2018-02-07T21:46:38.736Z,47.50
2018-02-07T21:49:06.299Z,47.30
2018-02-07T21:51:34.622Z,47.60
2018-02-07T21:54:02.962Z,47.70
2018-02-07T21:56:32.025Z,48.00
2018-02-07T21:58:59.593Z,47.80
2018-02-07T22:01:27.910Z,47.70
2018-02-07T22:03:56.282Z,47.70
2018-02-07T22:06:28.006Z,47.90
2018-02-07T22:08:56.351Z,48.20
2018-02-07T22:11:24.654Z,48.20
2018-02-07T22:13:52.623Z,48.60
2018-02-07T22:16:20.566Z,49.00
2018-02-07T22:18:48.126Z,48.90
2018-02-07T22:21:15.673Z,49.10
2018-02-07T22:23:43.652Z,49.50
2018-02-07T22:26:12.106Z,49.50
2018-02-07T22:28:40.065Z,49.40
2018-02-07T22:31:08.430Z,49.70
2018-02-07T22:33:36.389Z,49.30
2018-02-07T22:36:04.339Z,49.30
2018-02-07T22:38:32.308Z,49.20
2018-02-07T22:40:59.957Z,49.50
2018-02-07T22:43:27.742Z,49.50
2018-02-07T22:45:56.066Z,49.60
2018-02-07T22:48:24.168Z,49.60
2018-02-07T22:50:51.721Z,49.90
2018-02-07T22:53:19.678Z,50.00
2018-02-07T22:55:47.261Z,50.00
2018-02-07T22:58:15.967Z,50.50
2018-02-07T23:00:43.536Z,50.00
2018-02-07T23:03:12.624Z,50.70
2018-02-07T23:05:40.179Z,50.30
2018-02-07T23:08:08.152Z,50.40
2018-02-07T23:10:36.095Z,50.70
2018-02-07T23:13:03.662Z,51.00
2018-02-07T23:15:31.234Z,51.10
2018-02-07T23:17:59.197Z,51.00
2018-02-07T23:20:27.562Z,51.20
2018-02-07T23:22:55.878Z,51.10
2018-02-07T23:25:23.848Z,51.20
2018-02-07T23:27:51.403Z,51.20
2018-02-07T23:30:19.974Z,51.00
2018-02-07T23:32:47.930Z,51.00
2018-02-07T23:35:16.261Z,51.60
2018-02-07T23:37:44.574Z,51.80
2018-02-07T23:40:12.912Z,51.50
2018-02-07T23:42:41.224Z,51.80
2018-02-07T23:45:08.778Z,51.40
2018-02-07T23:47:36.719Z,51.50
2018-02-07T23:50:05.051Z,51.20
2018-02-07T23:52:33.061Z,51.00
2018-02-07T23:55:01.451Z,52.00
2018-02-07T23:57:29.016Z,51.50
2018-02-07T23:59:57.012Z,51.70
